sensor_id;sensor_type;location;lat;lon;timestamp;pressure;altitude;pressure_sealevel;temperature;humidity
68141;BME280;54941;52.220;104.306;2023-02-26T00:00:50;96441.28;;;-11.37;79.79
68141;BME280;54941;52.220;104.306;2023-02-26T00:03:16;96454.78;;;-11.24;80.26
68141;BME280;54941;52.220;104.306;2023-02-26T00:05:43;96456.06;;;-11.34;80.14
68141;BME280;54941;52.220;104.306;2023-02-26T00:08:09;96459.22;;;-11.30;80.51
68141;BME280;54941;52.220;104.306;2023-02-26T00:10:35;96466.41;;;-11.24;80.38
68141;BME280;54941;52.220;104.306;2023-02-26T00:13:02;96471.47;;;-11.45;80.12
68141;BME280;54941;52.220;104.306;2023-02-26T00:15:29;96475.88;;;-11.50;80.47
68141;BME280;54941;52.220;104.306;2023-02-26T00:18:01;96478.59;;;-11.37;81.00
68141;BME280;54941;52.220;104.306;2023-02-26T00:20:31;96487.47;;;-11.31;80.68
68141;BME280;54941;52.220;104.306;2023-02-26T00:22:58;96492.69;;;-11.38;81.25
68141;BME280;54941;52.220;104.306;2023-02-26T00:25:25;96490.38;;;-11.05;81.31
68141;BME280;54941;52.220;104.306;2023-02-26T00:27:52;96483.94;;;-11.09;80.43
68141;BME280;54941;52.220;104.306;2023-02-26T00:30:19;96492.81;;;-11.22;79.36
68141;BME280;54941;52.220;104.306;2023-02-26T00:32:46;96498.13;;;-11.29;78.85
68141;BME280;54941;52.220;104.306;2023-02-26T00:35:15;96494.72;;;-11.27;79.62
68141;BME280;54941;52.220;104.306;2023-02-26T00:37:54;96493.44;;;-11.00;79.18
68141;BME280;54941;52.220;104.306;2023-02-26T00:40:29;96502.03;;;-10.88;78.20
68141;BME280;54941;52.220;104.306;2023-02-26T00:43:00;96506.56;;;-10.79;78.30
68141;BME280;54941;52.220;104.306;2023-02-26T00:45:27;96506.41;;;-10.93;78.54
68141;BME280;54941;52.220;104.306;2023-02-26T00:48:03;96517.47;;;-10.81;77.42
68141;BME280;54941;52.220;104.306;2023-02-26T00:50:37;96523.28;;;-10.47;77.62
68141;BME280;54941;52.220;104.306;2023-02-26T00:53:14;96531.69;;;-10.32;76.84
68141;BME280;54941;52.220;104.306;2023-02-26T00:55:42;96542.59;;;-10.17;76.69
68141;BME280;54941;52.220;104.306;2023-02-26T00:58:08;96534.13;;;-9.82;76.08
68141;BME280;54941;52.220;104.306;2023-02-26T01:00:35;96535.31;;;-9.72;75.72
68141;BME280;54941;52.220;104.306;2023-02-26T01:03:01;96543.06;;;-9.29;74.34
68141;BME280;54941;52.220;104.306;2023-02-26T01:05:28;96557.47;;;-9.19;73.40
68141;BME280;54941;52.220;104.306;2023-02-26T01:08:02;96569.72;;;-8.99;72.02
68141;BME280;54941;52.220;104.306;2023-02-26T01:10:31;96553.75;;;-9.12;73.23
68141;BME280;54941;52.220;104.306;2023-02-26T01:12:58;96551.53;;;-8.71;72.31
68141;BME280;54941;52.220;104.306;2023-02-26T01:15:25;96561.78;;;-8.75;71.35
68141;BME280;54941;52.220;104.306;2023-02-26T01:17:56;96554.69;;;-8.83;71.95
68141;BME280;54941;52.220;104.306;2023-02-26T01:20:31;96556.88;;;-8.61;69.71
68141;BME280;54941;52.220;104.306;2023-02-26T01:23:07;96577.28;;;-8.39;69.28
68141;BME280;54941;52.220;104.306;2023-02-26T01:25:37;96557.19;;;-8.67;70.23
68141;BME280;54941;52.220;104.306;2023-02-26T01:28:05;96550.88;;;-8.15;70.37
68141;BME280;54941;52.220;104.306;2023-02-26T01:30:32;96553.84;;;-7.94;69.92
68141;BME280;54941;52.220;104.306;2023-02-26T01:33:04;96566.63;;;-7.42;68.77
68141;BME280;54941;52.220;104.306;2023-02-26T01:35:40;96578.00;;;-7.22;67.49
68141;BME280;54941;52.220;104.306;2023-02-26T01:38:17;96579.84;;;-6.31;65.34
68141;BME280;54941;52.220;104.306;2023-02-26T01:41:15;96586.50;;;-6.30;64.70
68141;BME280;54941;52.220;104.306;2023-02-26T01:43:50;96581.66;;;-6.33;64.24
68141;BME280;54941;52.220;104.306;2023-02-26T01:46:27;96588.72;;;-6.53;64.16
68141;BME280;54941;52.220;104.306;2023-02-26T01:48:57;96595.22;;;-6.63;63.95
68141;BME280;54941;52.220;104.306;2023-02-26T01:51:46;96597.75;;;-6.23;63.63
68141;BME280;54941;52.220;104.306;2023-02-26T01:54:17;96590.41;;;-6.26;64.21
68141;BME280;54941;52.220;104.306;2023-02-26T01:56:45;96607.28;;;-6.16;63.24
68141;BME280;54941;52.220;104.306;2023-02-26T01:59:14;96609.81;;;-6.43;63.29
68141;BME280;54941;52.220;104.306;2023-02-26T02:01:41;96606.03;;;-5.71;61.70
68141;BME280;54941;52.220;104.306;2023-02-26T02:04:11;96602.53;;;-4.94;59.47
68141;BME280;54941;52.220;104.306;2023-02-26T02:06:38;96610.66;;;-4.30;57.78
68141;BME280;54941;52.220;104.306;2023-02-26T02:09:05;96613.78;;;-4.27;56.54
68141;BME280;54941;52.220;104.306;2023-02-26T02:11:34;96618.50;;;-3.76;55.38
68141;BME280;54941;52.220;104.306;2023-02-26T02:14:11;96611.06;;;-3.89;54.56
68141;BME280;54941;52.220;104.306;2023-02-26T02:16:48;96628.81;;;-3.00;54.35
68141;BME280;54941;52.220;104.306;2023-02-26T02:19:58;96624.00;;;-3.14;53.90
68141;BME280;54941;52.220;104.306;2023-02-26T02:22:51;96622.28;;;-1.74;50.13
68141;BME280;54941;52.220;104.306;2023-02-26T02:25:52;96623.06;;;-2.26;51.49
68141;BME280;54941;52.220;104.306;2023-02-26T02:28:34;96642.53;;;-1.85;51.07
68141;BME280;54941;52.220;104.306;2023-02-26T02:31:09;96639.44;;;-2.85;52.81
68141;BME280;54941;52.220;104.306;2023-02-26T02:33:43;96636.72;;;-1.76;50.54
68141;BME280;54941;52.220;104.306;2023-02-26T02:36:15;96640.44;;;-1.59;49.00
68141;BME280;54941;52.220;104.306;2023-02-26T02:38:46;96632.91;;;-0.99;47.73
68141;BME280;54941;52.220;104.306;2023-02-26T02:41:16;96626.72;;;-0.16;47.08
68141;BME280;54941;52.220;104.306;2023-02-26T02:43:44;96617.66;;;-0.19;44.82
68141;BME280;54941;52.220;104.306;2023-02-26T02:46:17;96632.56;;;-0.35;45.78
68141;BME280;54941;52.220;104.306;2023-02-26T02:48:48;96630.97;;;-0.07;45.87
68141;BME280;54941;52.220;104.306;2023-02-26T02:51:23;96617.25;;;0.05;45.56
68141;BME280;54941;52.220;104.306;2023-02-26T02:53:53;96608.50;;;-0.69;46.13
68141;BME280;54941;52.220;104.306;2023-02-26T02:56:23;96605.78;;;-0.96;47.10
68141;BME280;54941;52.220;104.306;2023-02-26T02:58:59;96606.72;;;-2.11;50.49
68141;BME280;54941;52.220;104.306;2023-02-26T03:01:28;96610.16;;;-2.12;51.62
68141;BME280;54941;52.220;104.306;2023-02-26T03:04:01;96594.66;;;-3.15;53.55
68141;BME280;54941;52.220;104.306;2023-02-26T03:06:29;96602.31;;;-3.28;54.14
68141;BME280;54941;52.220;104.306;2023-02-26T03:08:55;96612.16;;;-2.91;54.05
68141;BME280;54941;52.220;104.306;2023-02-26T03:11:23;96610.69;;;-3.27;55.39
68141;BME280;54941;52.220;104.306;2023-02-26T03:13:49;96612.41;;;-3.06;54.12
68141;BME280;54941;52.220;104.306;2023-02-26T03:16:33;96614.91;;;-3.28;53.96
68141;BME280;54941;52.220;104.306;2023-02-26T03:19:10;96626.22;;;-2.44;52.82
68141;BME280;54941;52.220;104.306;2023-02-26T03:21:47;96626.75;;;-1.06;49.34
68141;BME280;54941;52.220;104.306;2023-02-26T03:24:18;96630.16;;;-0.46;46.73
68141;BME280;54941;52.220;104.306;2023-02-26T03:26:53;96623.03;;;-0.71;48.09
68141;BME280;54941;52.220;104.306;2023-02-26T03:29:26;96624.84;;;0.05;45.90
68141;BME280;54941;52.220;104.306;2023-02-26T03:32:01;96624.16;;;-0.35;47.62
68141;BME280;54941;52.220;104.306;2023-02-26T03:34:33;96625.91;;;0.12;46.25
68141;BME280;54941;52.220;104.306;2023-02-26T03:37:04;96634.19;;;0.43;45.50
68141;BME280;54941;52.220;104.306;2023-02-26T03:39:36;96637.09;;;-0.29;47.64
68141;BME280;54941;52.220;104.306;2023-02-26T03:42:07;96643.00;;;-0.09;48.32
68141;BME280;54941;52.220;104.306;2023-02-26T03:44:38;96643.94;;;0.09;45.82
68141;BME280;54941;52.220;104.306;2023-02-26T03:47:11;96641.78;;;0.33;46.28
68141;BME280;54941;52.220;104.306;2023-02-26T03:49:43;96637.28;;;0.18;46.60
68141;BME280;54941;52.220;104.306;2023-02-26T03:52:11;96644.06;;;-0.02;45.91
68141;BME280;54941;52.220;104.306;2023-02-26T03:54:40;96670.72;;;0.50;45.05
68141;BME280;54941;52.220;104.306;2023-02-26T03:57:08;96670.34;;;0.07;47.31
68141;BME280;54941;52.220;104.306;2023-02-26T03:59:35;96675.81;;;0.31;46.07
68141;BME280;54941;52.220;104.306;2023-02-26T04:02:03;96671.53;;;0.41;46.01
68141;BME280;54941;52.220;104.306;2023-02-26T04:04:34;96671.53;;;0.12;46.16
68141;BME280;54941;52.220;104.306;2023-02-26T04:07:04;96678.06;;;0.43;46.90
68141;BME280;54941;52.220;104.306;2023-02-26T04:09:30;96667.91;;;0.53;47.30
68141;BME280;54941;52.220;104.306;2023-02-26T04:11:57;96681.88;;;1.32;44.74
68141;BME280;54941;52.220;104.306;2023-02-26T04:14:24;96673.06;;;0.90;46.28
68141;BME280;54941;52.220;104.306;2023-02-26T04:16:50;96686.88;;;0.49;47.21
68141;BME280;54941;52.220;104.306;2023-02-26T04:19:16;96668.06;;;0.13;48.00
68141;BME280;54941;52.220;104.306;2023-02-26T04:21:45;96671.91;;;0.65;47.20
68141;BME280;54941;52.220;104.306;2023-02-26T04:24:11;96682.47;;;1.71;44.04
68141;BME280;54941;52.220;104.306;2023-02-26T04:26:38;96665.78;;;0.48;46.96
68141;BME280;54941;52.220;104.306;2023-02-26T04:29:04;96664.72;;;0.51;48.18
68141;BME280;54941;52.220;104.306;2023-02-26T04:31:30;96668.19;;;0.31;49.97
68141;BME280;54941;52.220;104.306;2023-02-26T04:33:57;96670.34;;;1.01;49.76
68141;BME280;54941;52.220;104.306;2023-02-26T04:36:23;96667.50;;;0.77;49.16
68141;BME280;54941;52.220;104.306;2023-02-26T04:38:51;96664.16;;;0.76;49.70
68141;BME280;54941;52.220;104.306;2023-02-26T04:41:17;96671.88;;;0.75;49.63
68141;BME280;54941;52.220;104.306;2023-02-26T04:43:43;96669.25;;;1.13;50.24
68141;BME280;54941;52.220;104.306;2023-02-26T04:46:10;96675.50;;;1.19;50.35
68141;BME280;54941;52.220;104.306;2023-02-26T04:48:36;96670.06;;;1.41;50.18
68141;BME280;54941;52.220;104.306;2023-02-26T04:51:03;96668.69;;;1.19;51.69
68141;BME280;54941;52.220;104.306;2023-02-26T04:53:29;96671.38;;;0.62;53.00
68141;BME280;54941;52.220;104.306;2023-02-26T04:55:57;96670.31;;;0.55;56.42
68141;BME280;54941;52.220;104.306;2023-02-26T04:58:23;96674.59;;;0.06;55.51
68141;BME280;54941;52.220;104.306;2023-02-26T05:00:51;96673.06;;;-0.35;58.95
68141;BME280;54941;52.220;104.306;2023-02-26T05:03:18;96684.97;;;-0.16;58.26
68141;BME280;54941;52.220;104.306;2023-02-26T05:05:45;96680.06;;;0.30;58.98
68141;BME280;54941;52.220;104.306;2023-02-26T05:08:11;96687.25;;;0.44;58.76
68141;BME280;54941;52.220;104.306;2023-02-26T05:10:38;96694.25;;;-0.36;59.48
68141;BME280;54941;52.220;104.306;2023-02-26T05:13:05;96705.16;;;0.14;61.10
68141;BME280;54941;52.220;104.306;2023-02-26T05:15:32;96697.38;;;-0.04;61.63
68141;BME280;54941;52.220;104.306;2023-02-26T05:17:59;96692.34;;;0.06;60.67
68141;BME280;54941;52.220;104.306;2023-02-26T05:20:25;96692.78;;;-0.29;63.17
68141;BME280;54941;52.220;104.306;2023-02-26T05:22:51;96693.66;;;-0.19;64.16
68141;BME280;54941;52.220;104.306;2023-02-26T05:25:18;96696.59;;;0.15;62.73
68141;BME280;54941;52.220;104.306;2023-02-26T05:27:44;96679.94;;;0.03;64.17
68141;BME280;54941;52.220;104.306;2023-02-26T05:30:14;96682.59;;;0.11;63.22
68141;BME280;54941;52.220;104.306;2023-02-26T05:32:41;96690.56;;;-0.22;64.48
68141;BME280;54941;52.220;104.306;2023-02-26T05:35:08;96689.25;;;0.12;65.52
68141;BME280;54941;52.220;104.306;2023-02-26T05:37:35;96684.34;;;0.59;63.79
68141;BME280;54941;52.220;104.306;2023-02-26T05:40:01;96684.84;;;0.72;63.21
68141;BME280;54941;52.220;104.306;2023-02-26T05:42:30;96694.59;;;0.57;62.46
68141;BME280;54941;52.220;104.306;2023-02-26T05:44:56;96682.47;;;0.22;63.63
68141;BME280;54941;52.220;104.306;2023-02-26T05:47:24;96685.66;;;0.53;63.68
68141;BME280;54941;52.220;104.306;2023-02-26T05:49:50;96689.53;;;0.57;64.16
68141;BME280;54941;52.220;104.306;2023-02-26T05:52:16;96702.75;;;0.61;64.79
68141;BME280;54941;52.220;104.306;2023-02-26T05:54:43;96711.44;;;0.39;64.62
68141;BME280;54941;52.220;104.306;2023-02-26T05:57:09;96697.41;;;0.54;65.69
68141;BME280;54941;52.220;104.306;2023-02-26T05:59:35;96698.50;;;0.52;65.76
68141;BME280;54941;52.220;104.306;2023-02-26T06:02:02;96700.47;;;0.77;63.56
68141;BME280;54941;52.220;104.306;2023-02-26T06:04:30;96701.25;;;0.87;64.74
68141;BME280;54941;52.220;104.306;2023-02-26T06:06:56;96703.66;;;0.88;64.63
68141;BME280;54941;52.220;104.306;2023-02-26T06:09:22;96700.72;;;0.83;64.44
68141;BME280;54941;52.220;104.306;2023-02-26T06:11:49;96711.09;;;1.00;63.90
68141;BME280;54941;52.220;104.306;2023-02-26T06:14:15;96717.84;;;1.28;64.61
68141;BME280;54941;52.220;104.306;2023-02-26T06:16:42;96723.66;;;0.91;65.19
68141;BME280;54941;52.220;104.306;2023-02-26T06:19:08;96710.50;;;0.59;66.37
68141;BME280;54941;52.220;104.306;2023-02-26T06:21:36;96729.91;;;1.07;66.71
68141;BME280;54941;52.220;104.306;2023-02-26T06:24:03;96732.38;;;0.70;67.64
68141;BME280;54941;52.220;104.306;2023-02-26T06:26:29;96736.47;;;0.13;68.70
68141;BME280;54941;52.220;104.306;2023-02-26T06:28:55;96739.56;;;-0.33;69.86
68141;BME280;54941;52.220;104.306;2023-02-26T06:31:22;96738.25;;;-0.27;72.28
68141;BME280;54941;52.220;104.306;2023-02-26T06:33:48;96732.19;;;-0.06;72.08
68141;BME280;54941;52.220;104.306;2023-02-26T06:36:14;96737.03;;;0.07;70.77
68141;BME280;54941;52.220;104.306;2023-02-26T06:38:42;96752.47;;;0.04;73.09
68141;BME280;54941;52.220;104.306;2023-02-26T06:41:09;96752.94;;;-0.21;73.09
68141;BME280;54941;52.220;104.306;2023-02-26T06:43:35;96761.78;;;-0.46;73.59
68141;BME280;54941;52.220;104.306;2023-02-26T06:46:01;96759.00;;;-0.43;74.73
68141;BME280;54941;52.220;104.306;2023-02-26T06:48:28;96762.31;;;-0.42;76.16
68141;BME280;54941;52.220;104.306;2023-02-26T06:50:54;96766.81;;;-0.56;78.08
68141;BME280;54941;52.220;104.306;2023-02-26T06:53:21;96772.28;;;-1.02;79.08
68141;BME280;54941;52.220;104.306;2023-02-26T06:55:50;96782.69;;;-0.74;81.36
68141;BME280;54941;52.220;104.306;2023-02-26T06:58:17;96789.53;;;-0.86;82.84
68141;BME280;54941;52.220;104.306;2023-02-26T07:00:44;96798.22;;;-1.00;84.45
68141;BME280;54941;52.220;104.306;2023-02-26T07:03:12;96798.88;;;-0.86;86.24
68141;BME280;54941;52.220;104.306;2023-02-26T07:05:39;96805.84;;;-0.79;85.97
68141;BME280;54941;52.220;104.306;2023-02-26T07:08:06;96814.59;;;-0.83;86.96
68141;BME280;54941;52.220;104.306;2023-02-26T07:10:33;96810.38;;;-0.73;86.67
68141;BME280;54941;52.220;104.306;2023-02-26T07:13:02;96818.09;;;-0.95;86.74
68141;BME280;54941;52.220;104.306;2023-02-26T07:15:28;96825.94;;;-0.77;87.78
68141;BME280;54941;52.220;104.306;2023-02-26T07:17:55;96821.91;;;-0.59;88.14
68141;BME280;54941;52.220;104.306;2023-02-26T07:20:21;96828.16;;;-0.42;86.57
68141;BME280;54941;52.220;104.306;2023-02-26T07:22:48;96832.16;;;-0.40;86.62
68141;BME280;54941;52.220;104.306;2023-02-26T07:25:15;96834.00;;;-0.42;87.16
68141;BME280;54941;52.220;104.306;2023-02-26T07:27:41;96829.84;;;-0.22;87.84
68141;BME280;54941;52.220;104.306;2023-02-26T07:30:10;96827.63;;;-0.36;87.26
68141;BME280;54941;52.220;104.306;2023-02-26T07:32:37;96834.56;;;-0.59;89.03
68141;BME280;54941;52.220;104.306;2023-02-26T07:35:04;96837.25;;;-0.61;89.30
68141;BME280;54941;52.220;104.306;2023-02-26T07:37:30;96837.50;;;-0.64;89.68
68141;BME280;54941;52.220;104.306;2023-02-26T07:39:57;96843.03;;;-0.70;90.32
68141;BME280;54941;52.220;104.306;2023-02-26T07:42:24;96844.59;;;-0.58;89.84
68141;BME280;54941;52.220;104.306;2023-02-26T07:44:50;96849.09;;;-0.61;90.10
68141;BME280;54941;52.220;104.306;2023-02-26T07:47:18;96853.16;;;-0.90;90.52
68141;BME280;54941;52.220;104.306;2023-02-26T07:49:44;96842.47;;;-0.94;92.01
68141;BME280;54941;52.220;104.306;2023-02-26T07:52:11;96845.19;;;-0.65;91.98
68141;BME280;54941;52.220;104.306;2023-02-26T07:54:37;96853.19;;;-1.02;92.27
68141;BME280;54941;52.220;104.306;2023-02-26T07:57:04;96848.09;;;-0.90;92.43
68141;BME280;54941;52.220;104.306;2023-02-26T07:59:30;96852.75;;;-0.75;92.89
68141;BME280;54941;52.220;104.306;2023-02-26T08:01:57;96852.41;;;-1.02;93.11
68141;BME280;54941;52.220;104.306;2023-02-26T08:04:25;96857.59;;;-0.83;93.08
68141;BME280;54941;52.220;104.306;2023-02-26T08:06:51;96863.06;;;-0.99;93.29
68141;BME280;54941;52.220;104.306;2023-02-26T08:09:17;96867.59;;;-1.13;94.66
68141;BME280;54941;52.220;104.306;2023-02-26T08:11:44;96872.84;;;-0.94;94.29
68141;BME280;54941;52.220;104.306;2023-02-26T08:14:10;96878.28;;;-1.10;94.70
68141;BME280;54941;52.220;104.306;2023-02-26T08:16:37;96880.53;;;-1.27;95.24
68141;BME280;54941;52.220;104.306;2023-02-26T08:19:03;96882.72;;;-1.23;95.46
68141;BME280;54941;52.220;104.306;2023-02-26T08:21:31;96898.22;;;-1.27;95.48
68141;BME280;54941;52.220;104.306;2023-02-26T08:23:59;96894.41;;;-1.22;95.94
68141;BME280;54941;52.220;104.306;2023-02-26T08:26:25;96905.16;;;-1.29;95.69
68141;BME280;54941;52.220;104.306;2023-02-26T08:28:52;96901.88;;;-1.20;95.44
68141;BME280;54941;52.220;104.306;2023-02-26T08:31:18;96911.75;;;-1.17;95.28
68141;BME280;54941;52.220;104.306;2023-02-26T08:33:45;96908.38;;;-1.38;95.61
68141;BME280;54941;52.220;104.306;2023-02-26T08:36:11;96910.41;;;-1.32;95.83
68141;BME280;54941;52.220;104.306;2023-02-26T08:38:39;96914.78;;;-1.23;97.03
68141;BME280;54941;52.220;104.306;2023-02-26T08:41:06;96928.53;;;-1.16;96.42
68141;BME280;54941;52.220;104.306;2023-02-26T08:43:32;96946.25;;;-1.27;96.28
68141;BME280;54941;52.220;104.306;2023-02-26T08:45:59;96941.91;;;-1.48;96.29
68141;BME280;54941;52.220;104.306;2023-02-26T08:48:25;96945.59;;;-1.29;96.36
68141;BME280;54941;52.220;104.306;2023-02-26T08:50:51;96948.69;;;-1.37;97.06
68141;BME280;54941;52.220;104.306;2023-02-26T08:53:18;96942.13;;;-1.28;96.93
68141;BME280;54941;52.220;104.306;2023-02-26T08:55:49;96939.75;;;-1.52;96.97
68141;BME280;54941;52.220;104.306;2023-02-26T08:58:16;96941.34;;;-1.62;97.79
68141;BME280;54941;52.220;104.306;2023-02-26T09:00:43;96949.16;;;-1.65;98.16
68141;BME280;54941;52.220;104.306;2023-02-26T09:03:10;96952.16;;;-1.60;98.38
68141;BME280;54941;52.220;104.306;2023-02-26T09:05:38;96953.88;;;-1.38;98.22
68141;BME280;54941;52.220;104.306;2023-02-26T09:08:04;96969.59;;;-1.46;98.49
68141;BME280;54941;52.220;104.306;2023-02-26T09:10:31;96971.47;;;-1.70;98.76
68141;BME280;54941;52.220;104.306;2023-02-26T09:12:59;96975.25;;;-1.65;99.34
68141;BME280;54941;52.220;104.306;2023-02-26T09:15:25;96981.44;;;-1.69;99.72
68141;BME280;54941;52.220;104.306;2023-02-26T09:17:52;96970.75;;;-1.61;99.81
68141;BME280;54941;52.220;104.306;2023-02-26T09:20:18;96980.41;;;-1.55;99.61
68141;BME280;54941;52.220;104.306;2023-02-26T09:22:44;96984.44;;;-1.64;99.02
68141;BME280;54941;52.220;104.306;2023-02-26T09:25:11;96989.34;;;-1.84;99.70
68141;BME280;54941;52.220;104.306;2023-02-26T09:27:39;96998.19;;;-1.79;99.67
68141;BME280;54941;52.220;104.306;2023-02-26T09:30:08;96993.97;;;-1.78;99.62
68141;BME280;54941;52.220;104.306;2023-02-26T09:32:35;97006.47;;;-1.77;100.00
68141;BME280;54941;52.220;104.306;2023-02-26T09:35:01;97001.84;;;-1.94;99.90
68141;BME280;54941;52.220;104.306;2023-02-26T09:37:30;96999.66;;;-1.87;100.00
68141;BME280;54941;52.220;104.306;2023-02-26T09:39:56;97001.28;;;-1.86;100.00
68141;BME280;54941;52.220;104.306;2023-02-26T09:42:32;97016.09;;;-1.93;100.00
68141;BME280;54941;52.220;104.306;2023-02-26T09:45:03;97016.34;;;-1.85;100.00
68141;BME280;54941;52.220;104.306;2023-02-26T09:47:35;97010.81;;;-1.79;100.00
68141;BME280;54941;52.220;104.306;2023-02-26T09:50:09;97029.09;;;-1.75;100.00
68141;BME280;54941;52.220;104.306;2023-02-26T09:52:42;97022.53;;;-1.89;100.00
68141;BME280;54941;52.220;104.306;2023-02-26T09:55:13;97036.56;;;-1.85;100.00
68141;BME280;54941;52.220;104.306;2023-02-26T09:57:42;97037.00;;;-1.80;100.00
68141;BME280;54941;52.220;104.306;2023-02-26T10:00:20;97038.91;;;-1.94;100.00
68141;BME280;54941;52.220;104.306;2023-02-26T10:02:54;97042.94;;;-1.92;100.00
68141;BME280;54941;52.220;104.306;2023-02-26T10:05:31;97048.31;;;-2.08;100.00
68141;BME280;54941;52.220;104.306;2023-02-26T10:08:06;97047.38;;;-2.07;100.00
68141;BME280;54941;52.220;104.306;2023-02-26T10:10:44;97058.41;;;-2.08;100.00
68141;BME280;54941;52.220;104.306;2023-02-26T10:13:21;97061.03;;;-2.09;100.00
68141;BME280;54941;52.220;104.306;2023-02-26T10:15:49;97068.59;;;-2.09;100.00
68141;BME280;54941;52.220;104.306;2023-02-26T10:18:23;97079.47;;;-1.96;100.00
68141;BME280;54941;52.220;104.306;2023-02-26T10:20:54;97092.41;;;-2.01;100.00
68141;BME280;54941;52.220;104.306;2023-02-26T10:23:21;97089.63;;;-2.09;100.00
68141;BME280;54941;52.220;104.306;2023-02-26T10:25:52;97092.81;;;-2.07;100.00
68141;BME280;54941;52.220;104.306;2023-02-26T10:28:44;97094.59;;;-1.96;100.00
68141;BME280;54941;52.220;104.306;2023-02-26T10:31:23;97097.19;;;-2.09;100.00
68141;BME280;54941;52.220;104.306;2023-02-26T10:34:14;97107.88;;;-2.05;100.00
68141;BME280;54941;52.220;104.306;2023-02-26T10:36:47;97112.69;;;-2.02;100.00
68141;BME280;54941;52.220;104.306;2023-02-26T10:39:22;97124.53;;;-2.03;100.00
68141;BME280;54941;52.220;104.306;2023-02-26T10:41:52;97125.59;;;-2.18;100.00
68141;BME280;54941;52.220;104.306;2023-02-26T10:44:24;97130.56;;;-2.16;100.00
68141;BME280;54941;52.220;104.306;2023-02-26T10:47:00;97137.38;;;-2.06;100.00
68141;BME280;54941;52.220;104.306;2023-02-26T10:49:43;97140.84;;;-1.96;100.00
68141;BME280;54941;52.220;104.306;2023-02-26T10:52:14;97145.75;;;-2.05;100.00
68141;BME280;54941;52.220;104.306;2023-02-26T10:54:48;97150.31;;;-2.10;100.00
68141;BME280;54941;52.220;104.306;2023-02-26T10:57:23;97154.63;;;-2.23;100.00
68141;BME280;54941;52.220;104.306;2023-02-26T10:59:50;97167.16;;;-2.34;100.00
68141;BME280;54941;52.220;104.306;2023-02-26T11:02:31;97171.69;;;-2.27;100.00
68141;BME280;54941;52.220;104.306;2023-02-26T11:05:01;97173.31;;;-2.26;100.00
68141;BME280;54941;52.220;104.306;2023-02-26T11:07:30;97173.50;;;-2.29;100.00
68141;BME280;54941;52.220;104.306;2023-02-26T11:09:58;97188.25;;;-2.23;100.00
68141;BME280;54941;52.220;104.306;2023-02-26T11:12:25;97188.97;;;-2.33;100.00
68141;BME280;54941;52.220;104.306;2023-02-26T11:14:52;97192.16;;;-2.19;100.00
68141;BME280;54941;52.220;104.306;2023-02-26T11:17:20;97193.97;;;-2.21;100.00
68141;BME280;54941;52.220;104.306;2023-02-26T11:19:49;97188.34;;;-2.24;100.00
68141;BME280;54941;52.220;104.306;2023-02-26T11:22:20;97191.22;;;-2.18;100.00
68141;BME280;54941;52.220;104.306;2023-02-26T11:24:47;97206.28;;;-2.16;100.00
68141;BME280;54941;52.220;104.306;2023-02-26T11:27:17;97205.13;;;-2.36;100.00
68141;BME280;54941;52.220;104.306;2023-02-26T11:29:47;97207.03;;;-2.27;100.00
68141;BME280;54941;52.220;104.306;2023-02-26T11:32:16;97203.69;;;-2.27;100.00
68141;BME280;54941;52.220;104.306;2023-02-26T11:34:46;97218.03;;;-2.28;100.00
68141;BME280;54941;52.220;104.306;2023-02-26T11:37:19;97214.41;;;-2.36;100.00
68141;BME280;54941;52.220;104.306;2023-02-26T11:39:46;97215.94;;;-2.47;100.00
68141;BME280;54941;52.220;104.306;2023-02-26T11:42:13;97220.53;;;-2.52;100.00
68141;BME280;54941;52.220;104.306;2023-02-26T11:44:40;97227.47;;;-2.55;100.00
68141;BME280;54941;52.220;104.306;2023-02-26T11:47:12;97234.13;;;-2.54;100.00
68141;BME280;54941;52.220;104.306;2023-02-26T11:49:42;97236.53;;;-2.40;100.00
68141;BME280;54941;52.220;104.306;2023-02-26T11:52:20;97236.66;;;-2.41;100.00
68141;BME280;54941;52.220;104.306;2023-02-26T11:54:50;97243.22;;;-2.52;100.00
68141;BME280;54941;52.220;104.306;2023-02-26T11:57:23;97242.50;;;-2.54;100.00
68141;BME280;54941;52.220;104.306;2023-02-26T11:59:50;97242.38;;;-2.39;100.00
68141;BME280;54941;52.220;104.306;2023-02-26T12:02:20;97255.72;;;-2.50;100.00
68141;BME280;54941;52.220;104.306;2023-02-26T12:04:49;97241.38;;;-2.62;100.00
68141;BME280;54941;52.220;104.306;2023-02-26T12:07:16;97256.31;;;-2.47;100.00
68141;BME280;54941;52.220;104.306;2023-02-26T12:09:45;97266.53;;;-2.48;100.00
68141;BME280;54941;52.220;104.306;2023-02-26T12:12:25;97264.31;;;-2.53;100.00
68141;BME280;54941;52.220;104.306;2023-02-26T12:15:12;97266.34;;;-2.70;100.00
68141;BME280;54941;52.220;104.306;2023-02-26T12:17:51;97263.81;;;-2.70;100.00
68141;BME280;54941;52.220;104.306;2023-02-26T12:20:25;97271.78;;;-2.64;100.00
68141;BME280;54941;52.220;104.306;2023-02-26T12:23:05;97278.53;;;-2.77;100.00
68141;BME280;54941;52.220;104.306;2023-02-26T12:25:56;97278.44;;;-2.75;100.00
68141;BME280;54941;52.220;104.306;2023-02-26T12:34:32;97291.75;;;-2.73;100.00
68141;BME280;54941;52.220;104.306;2023-02-26T12:37:19;97300.03;;;-2.71;100.00
68141;BME280;54941;52.220;104.306;2023-02-26T12:40:00;97307.19;;;-2.78;100.00
68141;BME280;54941;52.220;104.306;2023-02-26T12:42:42;97311.63;;;-2.69;100.00
68141;BME280;54941;52.220;104.306;2023-02-26T12:45:25;97330.22;;;-2.70;100.00
68141;BME280;54941;52.220;104.306;2023-02-26T12:48:14;97329.69;;;-2.75;100.00
68141;BME280;54941;52.220;104.306;2023-02-26T12:50:57;97331.69;;;-2.92;100.00
68141;BME280;54941;52.220;104.306;2023-02-26T12:53:39;97326.03;;;-2.96;99.96
68141;BME280;54941;52.220;104.306;2023-02-26T12:56:21;97343.78;;;-2.98;99.98
68141;BME280;54941;52.220;104.306;2023-02-26T12:59:02;97342.97;;;-2.98;99.43